createdAt,value
2022-09-11T00:02:36.802Z,5.82
2022-09-11T00:05:24.545Z,5.47
2022-09-11T00:08:17.616Z,6.03
2022-09-11T00:11:19.817Z,6.18
2022-09-11T00:14:08.545Z,6.28
2022-09-11T00:16:56.080Z,5.93
2022-09-11T00:19:43.737Z,6.47
2022-09-11T00:22:33.968Z,6.43
2022-09-11T00:25:22.239Z,6.70
2022-09-11T00:28:14.356Z,5.78
2022-09-11T00:31:07.873Z,6.30
2022-09-11T00:33:57.481Z,5.70
2022-09-11T00:36:48.634Z,6.03
2022-09-11T00:39:38.880Z,5.90
2022-09-11T00:42:26.020Z,6.25
2022-09-11T00:45:25.867Z,6.07
2022-09-11T00:48:16.744Z,6.18
2022-09-11T00:51:07.178Z,5.90
2022-09-11T00:53:55.434Z,6.43
2022-09-11T00:56:46.165Z,6.85
2022-09-11T00:59:34.030Z,6.47
2022-09-11T01:02:27.431Z,6.60
2022-09-11T01:05:16.991Z,6.25
2022-09-11T01:08:06.891Z,6.18
2022-09-11T01:11:22.684Z,6.70
2022-09-11T01:14:31.336Z,6.60
2022-09-11T01:18:00.882Z,6.78
2022-09-11T01:21:21.080Z,7.07
2022-09-11T01:24:36.004Z,7.43
2022-09-11T01:27:44.185Z,6.75
2022-09-11T01:30:39.318Z,7.35
2022-09-11T01:33:31.758Z,6.05
2022-09-11T01:36:25.659Z,6.20
2022-09-11T01:39:13.566Z,5.57
2022-09-11T01:42:15.483Z,5.88
2022-09-11T01:45:08.964Z,6.10
2022-09-11T01:48:00.541Z,6.20
2022-09-11T01:50:52.667Z,6.38
2022-09-11T01:53:49.376Z,6.18
2022-09-11T01:56:41.440Z,5.50
2022-09-11T01:59:36.345Z,6.60
2022-09-11T02:02:31.932Z,6.38
2022-09-11T02:05:30.388Z,6.20
2022-09-11T02:08:53.225Z,5.88
2022-09-11T02:11:47.966Z,6.45
2022-09-11T02:14:41.788Z,6.30
2022-09-11T02:18:06.691Z,6.22
2022-09-11T02:20:54.466Z,6.28
2022-09-11T02:23:41.003Z,6.18
2022-09-11T02:26:32.378Z,6.45
2022-09-11T02:29:20.162Z,6.00
2022-09-11T02:32:07.695Z,5.18
2022-09-11T02:34:55.774Z,6.32
2022-09-11T02:37:50.631Z,5.88
2022-09-11T02:40:50.483Z,5.40
2022-09-11T02:43:51.811Z,5.38
2022-09-11T02:46:52.365Z,5.40
2022-09-11T02:50:28.720Z,5.40
2022-09-11T02:53:39.173Z,5.38
2022-09-11T02:56:46.829Z,5.80
2022-09-11T02:59:45.844Z,4.85
2022-09-11T03:02:41.295Z,5.43
2022-09-11T03:05:30.498Z,5.43
2022-09-11T03:08:18.394Z,5.57
2022-09-11T03:11:07.174Z,6.07
2022-09-11T03:13:56.983Z,5.80
2022-09-11T03:16:45.357Z,6.38
2022-09-11T03:19:33.647Z,6.15
2022-09-11T03:22:21.434Z,6.65
2022-09-11T03:25:15.949Z,6.10
2022-09-11T03:28:05.454Z,6.10
2022-09-11T03:30:54.306Z,6.00
2022-09-11T03:33:45.431Z,5.95
2022-09-11T03:36:36.401Z,5.70
2022-09-11T03:39:28.421Z,5.65
2022-09-11T03:42:18.789Z,6.00
2022-09-11T03:45:06.939Z,5.78
2022-09-11T03:47:55.204Z,5.65
2022-09-11T03:50:42.486Z,5.85
2022-09-11T03:53:30.180Z,5.82
2022-09-11T03:56:17.819Z,6.30
2022-09-11T03:59:08.092Z,6.70
2022-09-11T04:01:57.250Z,6.45
2022-09-11T04:04:45.586Z,5.82
2022-09-11T04:07:33.054Z,6.82
2022-09-11T04:10:22.831Z,6.68
2022-09-11T04:13:12.600Z,5.85
2022-09-11T04:16:14.141Z,6.57
2022-09-11T04:19:02.741Z,7.30
2022-09-11T04:21:55.240Z,6.78
2022-09-11T04:24:42.890Z,6.65
2022-09-11T04:27:34.085Z,6.78
2022-09-11T04:30:22.830Z,7.00
2022-09-11T04:33:12.445Z,7.32
2022-09-11T04:36:05.366Z,7.10
2022-09-11T04:38:59.114Z,6.47
2022-09-11T04:41:47.370Z,6.57
2022-09-11T04:44:36.757Z,6.22
2022-09-11T04:47:25.246Z,6.60
2022-09-11T04:50:13.693Z,6.82
2022-09-11T04:53:03.080Z,6.43
2022-09-11T04:56:02.007Z,7.43
2022-09-11T04:59:02.451Z,6.40
2022-09-11T05:01:52.527Z,7.07
2022-09-11T05:04:42.334Z,7.53
2022-09-11T05:07:30.495Z,6.88
2022-09-11T05:10:20.840Z,7.32
2022-09-11T05:13:09.598Z,7.07
2022-09-11T05:16:03.171Z,7.05
2022-09-11T05:18:53.527Z,8.38
2022-09-11T05:21:42.663Z,8.15
2022-09-11T05:24:30.209Z,6.55
2022-09-11T05:27:18.528Z,6.80
2022-09-11T05:30:09.535Z,6.75
2022-09-11T05:32:58.405Z,6.97
2022-09-11T05:35:52.527Z,6.13
2022-09-11T05:38:44.856Z,6.30
2022-09-11T05:41:33.220Z,6.47
2022-09-11T05:44:21.559Z,10.05
2022-09-11T05:47:08.366Z,7.93
2022-09-11T05:49:56.823Z,7.00
2022-09-11T05:52:45.457Z,5.85
2022-09-11T05:55:36.680Z,6.40
2022-09-11T05:58:25.198Z,6.32
2022-09-11T06:01:20.651Z,6.30
2022-09-11T06:04:15.490Z,6.53
2022-09-11T06:07:04.899Z,6.70
2022-09-11T06:09:53.103Z,6.55
2022-09-11T06:12:42.662Z,6.25
2022-09-11T06:15:46.137Z,6.18
2022-09-11T06:18:38.345Z,5.85
2022-09-11T06:21:32.895Z,6.32
2022-09-11T06:24:33.616Z,6.00
2022-09-11T06:27:21.509Z,8.35
2022-09-11T06:30:11.260Z,6.43
2022-09-11T06:33:02.041Z,6.57
2022-09-11T06:36:02.152Z,6.00
2022-09-11T06:38:59.182Z,6.60
2022-09-11T06:41:49.166Z,7.05
2022-09-11T06:44:39.052Z,9.48
2022-09-11T06:47:26.509Z,8.52
2022-09-11T06:50:15.162Z,6.43
2022-09-11T06:53:31.360Z,6.72
2022-09-11T06:56:22.105Z,6.05
2022-09-11T06:59:10.526Z,6.25
2022-09-11T07:01:58.458Z,6.55
2022-09-11T07:04:47.984Z,6.57
2022-09-11T07:07:45.062Z,6.13
2022-09-11T07:10:37.065Z,7.93
2022-09-11T07:22:11.206Z,7.32
2022-09-11T07:24:58.606Z,7.47
2022-09-11T07:27:47.482Z,7.70
2022-09-11T07:30:35.282Z,9.20
2022-09-11T07:33:22.493Z,8.02
2022-09-11T07:36:12.271Z,8.23
2022-09-11T07:39:01.943Z,7.60
2022-09-11T07:41:54.857Z,8.20
2022-09-11T07:44:45.878Z,9.25
2022-09-11T07:47:34.034Z,9.23
2022-09-11T07:50:21.802Z,10.65
2022-09-11T07:53:08.209Z,10.40
2022-09-11T07:55:56.121Z,11.68
2022-09-11T07:58:43.420Z,12.80
2022-09-11T08:01:31.678Z,13.88
2022-09-11T08:04:17.895Z,8.95
2022-09-11T08:07:04.539Z,8.90
2022-09-11T08:10:16.445Z,11.25
2022-09-11T08:13:00.680Z,9.70
2022-09-11T08:15:52.055Z,8.57
2022-09-11T08:18:39.310Z,9.00
2022-09-11T08:21:26.433Z,8.65
2022-09-11T08:24:13.230Z,7.57
2022-09-11T08:27:00.421Z,8.32
2022-09-11T08:29:48.245Z,9.68
2022-09-11T08:32:36.176Z,8.32
2022-09-11T08:35:22.112Z,8.23
2022-09-11T08:38:07.911Z,8.13
2022-09-11T08:40:54.445Z,8.27
2022-09-11T08:43:53.496Z,6.90
2022-09-11T08:46:42.221Z,7.10
2022-09-11T08:49:35.832Z,7.43
2022-09-11T08:52:22.630Z,7.72
2022-09-11T08:55:17.565Z,7.65
2022-09-11T08:58:14.582Z,7.82
2022-09-11T09:01:12.782Z,7.95
2022-09-11T09:04:31.102Z,8.13
2022-09-11T09:07:32.300Z,7.22
2022-09-11T09:10:46.928Z,7.45
2022-09-11T09:14:07.417Z,7.32
2022-09-11T09:17:00.153Z,7.22
2022-09-11T09:19:52.690Z,7.47
2022-09-11T09:22:49.901Z,7.70
2022-09-11T09:25:38.627Z,7.10
2022-09-11T09:28:41.636Z,7.07
2022-09-11T09:31:31.285Z,7.45
2022-09-11T09:34:19.926Z,6.75
2022-09-11T09:37:18.081Z,6.90
2022-09-11T09:40:10.408Z,6.78
2022-09-11T09:43:20.334Z,7.45
2022-09-11T09:46:27.568Z,7.22
2022-09-11T09:49:17.996Z,7.57
2022-09-11T09:52:24.893Z,7.38
2022-09-11T09:55:16.761Z,7.43
2022-09-11T09:58:02.733Z,7.38
2022-09-11T10:00:49.065Z,7.47
2022-09-11T10:03:34.850Z,7.72
2022-09-11T10:06:22.163Z,7.05
2022-09-11T10:09:22.346Z,8.35
2022-09-11T10:12:24.459Z,6.63
2022-09-11T10:15:19.236Z,6.32
2022-09-11T10:18:33.629Z,7.45
2022-09-11T10:21:36.800Z,7.18
2022-09-11T10:24:24.049Z,6.10
2022-09-11T10:27:12.836Z,6.35
2022-09-11T10:30:00.593Z,6.50
2022-09-11T10:32:46.625Z,6.30
2022-09-11T10:35:35.676Z,6.05
2022-09-11T10:38:26.061Z,5.53
2022-09-11T10:41:19.228Z,7.05
2022-09-11T10:44:14.326Z,7.10
2022-09-11T10:47:03.591Z,8.43
2022-09-11T10:49:49.656Z,9.35
2022-09-11T10:52:51.244Z,7.53
2022-09-11T10:55:40.850Z,7.05
2022-09-11T10:58:33.707Z,9.88
2022-09-11T11:04:09.220Z,7.68
2022-09-11T11:07:17.801Z,7.68
2022-09-11T11:10:25.510Z,10.40
2022-09-11T11:13:36.281Z,7.65
2022-09-11T11:16:36.197Z,12.32
2022-09-11T11:19:22.435Z,12.07
2022-09-11T11:22:45.406Z,9.95
2022-09-11T11:26:03.051Z,9.70
2022-09-11T11:29:00.457Z,8.95
2022-09-11T11:32:22.270Z,11.63
2022-09-11T11:35:25.879Z,13.30
2022-09-11T11:38:20.254Z,10.57
2022-09-11T11:41:12.727Z,9.30
2022-09-11T11:46:49.324Z,8.88
2022-09-11T11:49:51.120Z,7.45
2022-09-11T11:52:57.061Z,7.80
2022-09-11T11:56:01.381Z,8.35
2022-09-11T11:58:53.999Z,9.38
2022-09-11T12:04:47.016Z,8.88
2022-09-11T12:07:34.653Z,7.88
2022-09-11T12:10:33.450Z,9.05
2022-09-11T12:13:20.690Z,7.30
2022-09-11T12:16:25.057Z,7.63
2022-09-11T12:19:19.910Z,7.80
2022-09-11T12:22:11.388Z,6.25
2022-09-11T12:25:00.501Z,5.90
2022-09-11T12:27:46.615Z,5.88
2022-09-11T12:30:56.209Z,6.38
2022-09-11T12:33:42.025Z,5.85
2022-09-11T12:36:36.366Z,6.22
2022-09-11T12:39:33.281Z,6.82
2022-09-11T12:42:28.186Z,4.68
2022-09-11T12:45:36.396Z,5.25
2022-09-11T12:48:26.051Z,4.68
2022-09-11T12:51:21.931Z,10.60
2022-09-11T12:54:33.645Z,8.38
2022-09-11T12:57:27.994Z,5.70
2022-09-11T13:00:34.863Z,10.40
2022-09-11T13:03:25.154Z,13.48
2022-09-11T13:06:13.715Z,7.47
2022-09-11T13:09:00.779Z,7.15
2022-09-11T13:11:55.344Z,7.15
2022-09-11T13:14:56.506Z,6.20
2022-09-11T13:17:46.832Z,6.53
2022-09-11T13:20:32.871Z,5.38
2022-09-11T13:23:18.827Z,6.28
2022-09-11T13:26:06.405Z,5.47
2022-09-11T13:28:54.932Z,5.20
2022-09-11T13:31:40.975Z,7.93
2022-09-11T13:34:28.748Z,7.05
2022-09-11T13:37:42.604Z,6.75
2022-09-11T13:40:39.482Z,8.57
2022-09-11T13:43:31.340Z,8.73
2022-09-11T13:46:17.306Z,7.73
2022-09-11T13:49:10.382Z,5.90
2022-09-11T13:51:56.380Z,6.07
2022-09-11T13:55:10.436Z,5.85
2022-09-11T13:58:01.699Z,4.95
2022-09-11T14:00:48.905Z,5.43
2022-09-11T14:03:35.012Z,5.95
2022-09-11T14:06:21.301Z,4.78
2022-09-11T14:09:07.204Z,5.38
2022-09-11T14:11:53.182Z,5.45
2022-09-11T14:14:39.127Z,6.75
2022-09-11T14:17:25.918Z,14.52
2022-09-11T14:20:20.152Z,9.20
2022-09-11T14:23:06.549Z,6.25
2022-09-11T14:26:14.817Z,4.35
2022-09-11T14:29:06.919Z,4.53
2022-09-11T14:31:54.310Z,5.28
2022-09-11T14:34:40.327Z,4.80
2022-09-11T14:37:27.965Z,4.90
2022-09-11T14:40:16.315Z,5.38
2022-09-11T14:43:03.479Z,5.85
2022-09-11T14:45:51.634Z,7.75
2022-09-11T14:48:38.057Z,6.30
2022-09-11T14:51:24.477Z,6.50
2022-09-11T14:54:15.581Z,8.15
2022-09-11T14:57:03.211Z,6.43
2022-09-11T14:59:50.300Z,6.28
2022-09-11T15:02:36.494Z,7.05
2022-09-11T15:05:24.713Z,5.88
2022-09-11T15:08:10.937Z,5.63
2022-09-11T15:10:57.014Z,6.30
2022-09-11T15:14:10.996Z,6.07
2022-09-11T15:16:50.926Z,5.35
2022-09-11T15:19:38.089Z,5.70
2022-09-11T15:22:24.037Z,5.32
2022-09-11T15:25:10.189Z,5.60
2022-09-11T15:27:56.448Z,5.75
2022-09-11T15:30:42.903Z,5.50
2022-09-11T15:33:30.392Z,6.00
2022-09-11T15:36:16.435Z,6.15
2022-09-11T15:39:03.628Z,5.93
2022-09-11T15:41:49.353Z,5.55
2022-09-11T15:44:36.384Z,5.63
2022-09-11T15:47:22.781Z,6.20
2022-09-11T15:50:09.488Z,6.05
2022-09-11T15:52:55.637Z,5.68
2022-09-11T15:55:41.910Z,5.85
2022-09-11T15:58:27.776Z,5.65
2022-09-11T16:01:22.201Z,5.90
2022-09-11T16:04:13.933Z,6.03
2022-09-11T16:07:00.287Z,6.37
2022-09-11T16:09:46.389Z,6.30
2022-09-11T16:12:34.658Z,6.38
2022-09-11T16:15:21.134Z,6.95
2022-09-11T16:18:09.729Z,7.10
2022-09-11T16:20:58.061Z,7.18
2022-09-11T16:23:44.518Z,6.90
2022-09-11T16:26:31.731Z,6.03
2022-09-11T16:29:21.121Z,6.60
2022-09-11T16:32:06.958Z,7.00
2022-09-11T16:34:52.844Z,6.65
2022-09-11T16:37:38.954Z,6.40
2022-09-11T16:40:25.029Z,5.85
2022-09-11T16:43:11.012Z,6.32
2022-09-11T16:45:57.561Z,6.70
2022-09-11T16:48:48.462Z,6.07
2022-09-11T16:51:46.520Z,6.95
2022-09-11T16:54:32.400Z,6.80
2022-09-11T16:57:18.278Z,7.15
2022-09-11T17:00:05.428Z,6.60
2022-09-11T17:02:52.513Z,7.00
2022-09-11T17:05:38.533Z,6.43
2022-09-11T17:08:25.182Z,7.40
2022-09-11T17:11:13.822Z,6.47
2022-09-11T17:14:03.689Z,6.80
2022-09-11T17:16:50.190Z,6.38
2022-09-11T17:19:36.161Z,6.55
2022-09-11T17:22:22.077Z,6.80
2022-09-11T17:25:09.595Z,5.95
2022-09-11T17:27:56.226Z,6.78
2022-09-11T17:30:42.145Z,6.00
2022-09-11T17:33:28.187Z,6.20
2022-09-11T17:36:17.245Z,5.80
2022-09-11T17:39:04.264Z,6.20
2022-09-11T17:41:50.552Z,6.88
2022-09-11T17:44:36.581Z,6.40
2022-09-11T17:47:22.690Z,5.60
2022-09-11T17:50:09.769Z,6.38
2022-09-11T17:52:56.193Z,5.78
2022-09-11T17:55:42.300Z,6.20
2022-09-11T17:58:29.697Z,5.53
2022-09-11T18:01:17.096Z,5.97
2022-09-11T18:04:03.422Z,5.13
2022-09-11T18:06:51.138Z,5.35
2022-09-11T18:09:37.281Z,5.50
2022-09-11T18:12:25.796Z,5.63
2022-09-11T18:15:12.390Z,5.60
2022-09-11T18:17:58.848Z,5.85
2022-09-11T18:20:45.667Z,6.18
2022-09-11T18:23:31.870Z,6.53
2022-09-11T18:26:27.069Z,6.13
2022-09-11T18:29:15.630Z,5.72
2022-09-11T18:32:03.446Z,5.90
2022-09-11T18:34:49.735Z,6.60
2022-09-11T18:37:35.784Z,6.32
2022-09-11T18:40:21.892Z,9.98
2022-09-11T18:43:08.956Z,7.45
2022-09-11T18:45:55.529Z,11.02
2022-09-11T18:48:46.289Z,7.78
2022-09-11T18:51:32.965Z,7.03
2022-09-11T18:54:21.082Z,7.00
2022-09-11T18:57:07.427Z,7.00
2022-09-11T18:59:53.693Z,7.15
2022-09-11T19:02:39.767Z,6.45
2022-09-11T19:05:26.350Z,13.38
2022-09-11T19:08:12.361Z,10.75
2022-09-11T19:11:00.102Z,8.60
2022-09-11T19:13:46.385Z,12.80
2022-09-11T19:16:33.319Z,9.35
2022-09-11T19:19:20.041Z,8.75
2022-09-11T19:22:05.939Z,7.10
2022-09-11T19:24:54.738Z,6.82
2022-09-11T19:27:42.047Z,6.65
2022-09-11T19:30:27.836Z,5.63
2022-09-11T19:33:13.806Z,5.15
2022-09-11T19:36:03.968Z,4.45
2022-09-11T19:38:52.858Z,4.78
2022-09-11T19:41:39.932Z,7.30
2022-09-11T19:44:26.265Z,7.75
2022-09-11T19:47:12.549Z,6.30
2022-09-11T19:50:00.291Z,5.28
2022-09-11T19:55:33.941Z,10.00
2022-09-11T19:58:23.859Z,7.53
2022-09-11T20:01:15.292Z,6.30
2022-09-11T20:04:01.815Z,5.95
2022-09-11T20:09:34.130Z,5.50
2022-09-11T20:12:21.223Z,5.35
2022-09-11T20:15:08.145Z,4.95
2022-09-11T20:17:54.112Z,5.57
2022-09-11T20:20:44.825Z,4.90
2022-09-11T20:23:31.798Z,5.00
2022-09-11T20:26:22.239Z,5.18
2022-09-11T20:29:12.338Z,5.80
2022-09-11T20:32:00.556Z,5.25
2022-09-11T20:34:46.904Z,5.53
2022-09-11T20:37:36.740Z,5.75
2022-09-11T20:40:23.006Z,6.10
2022-09-11T20:43:08.814Z,6.70
2022-09-11T20:45:54.697Z,6.88
2022-09-11T20:48:40.734Z,5.70
2022-09-11T20:51:26.817Z,5.07
2022-09-11T20:54:12.901Z,5.20
2022-09-11T20:57:00.504Z,4.50
2022-09-11T20:59:46.703Z,4.78
2022-09-11T21:02:32.731Z,4.70
2022-09-11T21:05:18.554Z,4.47
2022-09-11T21:08:04.745Z,4.80
2022-09-11T21:10:50.762Z,4.70
2022-09-11T21:13:38.304Z,5.50
2022-09-11T21:16:24.201Z,4.82
2022-09-11T21:19:12.753Z,4.85
2022-09-11T21:21:58.476Z,5.07
2022-09-11T21:24:48.162Z,4.97
2022-09-11T21:27:34.091Z,5.32
2022-09-11T21:30:20.204Z,5.10
2022-09-11T21:33:06.132Z,4.82
2022-09-11T21:35:52.714Z,5.05
2022-09-11T21:38:38.966Z,4.63
2022-09-11T21:41:25.149Z,4.85
2022-09-11T21:44:10.969Z,5.15
2022-09-11T21:46:56.940Z,4.63
2022-09-11T21:49:43.036Z,4.88
2022-09-11T21:52:29.558Z,4.90
2022-09-11T21:55:15.626Z,4.88
2022-09-11T21:58:01.647Z,4.80
2022-09-11T22:00:48.539Z,5.40
2022-09-11T22:03:34.896Z,8.30
2022-09-11T22:06:22.333Z,5.55
2022-09-11T22:09:08.495Z,9.00
2022-09-11T22:11:59.205Z,6.15
2022-09-11T22:14:46.808Z,7.05
2022-09-11T22:17:33.132Z,5.60
2022-09-11T22:20:19.360Z,5.22
2022-09-11T22:23:05.803Z,6.38
2022-09-11T22:25:59.251Z,6.93
2022-09-11T22:28:45.686Z,5.90
2022-09-11T22:31:31.619Z,5.47
2022-09-11T22:34:17.877Z,6.35
2022-09-11T22:37:04.447Z,5.47
2022-09-11T22:39:50.426Z,6.35
2022-09-11T22:42:36.048Z,5.70
2022-09-11T22:45:21.954Z,5.93
2022-09-11T22:48:07.829Z,6.18
2022-09-11T22:50:54.331Z,5.45
2022-09-11T22:53:40.781Z,5.53
2022-09-11T22:56:26.738Z,5.43
2022-09-11T22:59:12.887Z,5.78
2022-09-11T23:01:59.743Z,5.93
2022-09-11T23:05:05.568Z,5.68
2022-09-11T23:07:52.591Z,6.28
2022-09-11T23:10:42.680Z,5.85
2022-09-11T23:13:32.146Z,5.80
2022-09-11T23:16:21.127Z,5.93
2022-09-11T23:19:07.159Z,6.22
2022-09-11T23:21:52.916Z,5.60
2022-09-11T23:24:38.765Z,6.20
2022-09-11T23:27:24.754Z,5.68
2022-09-11T23:30:11.510Z,6.40
2022-09-11T23:32:57.768Z,6.93
2022-09-11T23:35:43.664Z,5.93
2022-09-11T23:38:29.476Z,6.32
2022-09-11T23:41:15.786Z,6.82
2022-09-11T23:44:02.452Z,7.03
2022-09-11T23:46:48.511Z,6.55
2022-09-11T23:49:36.365Z,6.75
2022-09-11T23:52:22.627Z,6.68
2022-09-11T23:55:08.995Z,7.05
2022-09-11T23:57:55.406Z,6.82
